sensor_id;sensor_type;location;lat;lon;timestamp;pressure;altitude;pressure_sealevel;temperature;humidity
24280;BME280;12395;42.808;23.408;2023-01-25T00:00:09;96027.69;;;1.51;88.61
24280;BME280;12395;42.808;23.408;2023-01-25T00:02:34;96017.84;;;1.44;88.84
24280;BME280;12395;42.808;23.408;2023-01-25T00:05:00;96019.84;;;1.51;88.53
24280;BME280;12395;42.808;23.408;2023-01-25T00:07:25;96013.44;;;1.44;88.64
24280;BME280;12395;42.808;23.408;2023-01-25T00:09:51;96022.56;;;1.50;87.86
24280;BME280;12395;42.808;23.408;2023-01-25T00:12:16;96015.09;;;1.45;88.24
24280;BME280;12395;42.808;23.408;2023-01-25T00:14:41;96018.69;;;1.44;87.95
24280;BME280;12395;42.808;23.408;2023-01-25T00:17:07;96008.75;;;1.38;87.84
24280;BME280;12395;42.808;23.408;2023-01-25T00:19:32;96017.50;;;1.37;87.91
24280;BME280;12395;42.808;23.408;2023-01-25T00:21:57;96015.88;;;1.36;87.98
24280;BME280;12395;42.808;23.408;2023-01-25T00:24:23;96004.75;;;1.23;88.46
24280;BME280;12395;42.808;23.408;2023-01-25T00:26:49;96017.53;;;1.26;88.48
24280;BME280;12395;42.808;23.408;2023-01-25T00:29:15;96011.63;;;1.24;88.49
24280;BME280;12395;42.808;23.408;2023-01-25T00:36:57;96012.44;;;1.25;88.88
24280;BME280;12395;42.808;23.408;2023-01-25T00:39:25;96011.88;;;1.21;88.66
24280;BME280;12395;42.808;23.408;2023-01-25T00:41:51;96015.44;;;1.09;89.09
24280;BME280;12395;42.808;23.408;2023-01-25T00:44:17;96019.50;;;1.13;89.42
24280;BME280;12395;42.808;23.408;2023-01-25T00:46:42;96022.84;;;1.04;89.01
24280;BME280;12395;42.808;23.408;2023-01-25T00:51:43;96024.97;;;1.10;89.66
24280;BME280;12395;42.808;23.408;2023-01-25T00:54:09;96020.69;;;1.09;89.31
24280;BME280;12395;42.808;23.408;2023-01-25T00:56:34;96019.16;;;1.07;89.05
24280;BME280;12395;42.808;23.408;2023-01-25T00:58:59;96024.72;;;1.13;88.88
24280;BME280;12395;42.808;23.408;2023-01-25T01:01:25;96018.19;;;1.08;88.58
24280;BME280;12395;42.808;23.408;2023-01-25T01:03:50;96024.25;;;1.08;88.63
24280;BME280;12395;42.808;23.408;2023-01-25T01:06:16;96015.59;;;1.08;89.16
24280;BME280;12395;42.808;23.408;2023-01-25T01:08:41;96019.72;;;1.10;88.25
24280;BME280;12395;42.808;23.408;2023-01-25T01:11:10;96015.00;;;1.04;88.00
24280;BME280;12395;42.808;23.408;2023-01-25T01:13:37;96015.25;;;1.01;88.30
24280;BME280;12395;42.808;23.408;2023-01-25T01:16:04;96024.13;;;1.10;88.59
24280;BME280;12395;42.808;23.408;2023-01-25T01:18:37;96026.38;;;1.14;88.64
24280;BME280;12395;42.808;23.408;2023-01-25T01:21:05;96021.38;;;1.11;88.33
24280;BME280;12395;42.808;23.408;2023-01-25T01:23:31;95999.09;;;1.07;88.62
24280;BME280;12395;42.808;23.408;2023-01-25T01:26:03;96002.41;;;1.09;88.28
24280;BME280;12395;42.808;23.408;2023-01-25T01:28:30;96010.56;;;1.16;88.88
24280;BME280;12395;42.808;23.408;2023-01-25T01:31:00;95992.56;;;1.13;88.30
24280;BME280;12395;42.808;23.408;2023-01-25T01:33:26;96004.16;;;1.20;88.00
24280;BME280;12395;42.808;23.408;2023-01-25T01:35:51;95987.25;;;1.03;88.10
24280;BME280;12395;42.808;23.408;2023-01-25T01:38:17;96003.50;;;1.07;88.05
24280;BME280;12395;42.808;23.408;2023-01-25T01:40:47;95989.41;;;0.98;88.23
24280;BME280;12395;42.808;23.408;2023-01-25T01:43:20;95992.22;;;1.06;88.54
24280;BME280;12395;42.808;23.408;2023-01-25T01:48:18;95984.91;;;1.00;88.54
24280;BME280;12395;42.808;23.408;2023-01-25T01:50:47;95985.59;;;1.02;88.13
24280;BME280;12395;42.808;23.408;2023-01-25T01:53:15;95970.91;;;0.90;88.13
24280;BME280;12395;42.808;23.408;2023-01-25T01:55:41;95985.84;;;0.99;88.64
24280;BME280;12395;42.808;23.408;2023-01-25T01:58:07;95983.84;;;0.92;88.39
24280;BME280;12395;42.808;23.408;2023-01-25T02:00:35;95978.38;;;0.95;88.87
24280;BME280;12395;42.808;23.408;2023-01-25T02:03:02;95981.47;;;1.00;88.24
24280;BME280;12395;42.808;23.408;2023-01-25T02:08:27;95986.09;;;0.96;88.03
24280;BME280;12395;42.808;23.408;2023-01-25T02:10:54;95984.44;;;0.95;88.12
24280;BME280;12395;42.808;23.408;2023-01-25T02:13:20;95986.84;;;0.87;88.05
24280;BME280;12395;42.808;23.408;2023-01-25T02:15:48;95979.09;;;0.86;87.62
24280;BME280;12395;42.808;23.408;2023-01-25T02:18:14;95986.94;;;0.86;87.84
24280;BME280;12395;42.808;23.408;2023-01-25T02:20:44;95997.00;;;0.90;87.75
24280;BME280;12395;42.808;23.408;2023-01-25T02:25:35;95991.44;;;0.84;87.59
24280;BME280;12395;42.808;23.408;2023-01-25T02:28:24;95996.31;;;0.77;87.39
24280;BME280;12395;42.808;23.408;2023-01-25T02:30:51;95992.19;;;0.74;88.10
24280;BME280;12395;42.808;23.408;2023-01-25T02:33:16;96002.72;;;0.84;88.40
24280;BME280;12395;42.808;23.408;2023-01-25T02:35:48;95993.34;;;0.82;87.86
24280;BME280;12395;42.808;23.408;2023-01-25T02:38:16;95979.03;;;0.76;87.84
24280;BME280;12395;42.808;23.408;2023-01-25T02:40:47;95991.56;;;0.82;88.17
24280;BME280;12395;42.808;23.408;2023-01-25T02:43:16;95987.31;;;0.81;89.01
24280;BME280;12395;42.808;23.408;2023-01-25T02:45:45;95984.00;;;0.79;88.54
24280;BME280;12395;42.808;23.408;2023-01-25T02:48:11;95973.56;;;0.79;88.59
24280;BME280;12395;42.808;23.408;2023-01-25T02:50:37;95978.31;;;0.85;88.54
24280;BME280;12395;42.808;23.408;2023-01-25T02:53:02;95976.25;;;0.89;88.01
24280;BME280;12395;42.808;23.408;2023-01-25T02:55:28;95971.41;;;0.84;88.37
24280;BME280;12395;42.808;23.408;2023-01-25T02:57:53;95972.94;;;0.87;87.50
24280;BME280;12395;42.808;23.408;2023-01-25T03:00:18;95967.88;;;0.85;87.50
24280;BME280;12395;42.808;23.408;2023-01-25T03:02:44;95979.44;;;0.92;87.79
24280;BME280;12395;42.808;23.408;2023-01-25T03:05:09;95967.38;;;0.91;87.82
24280;BME280;12395;42.808;23.408;2023-01-25T03:07:35;95966.66;;;0.89;87.54
24280;BME280;12395;42.808;23.408;2023-01-25T03:10:00;95973.09;;;0.85;87.75
24280;BME280;12395;42.808;23.408;2023-01-25T03:12:25;95973.31;;;0.82;87.65
24280;BME280;12395;42.808;23.408;2023-01-25T03:14:51;95961.94;;;0.83;87.65
24280;BME280;12395;42.808;23.408;2023-01-25T03:17:16;95960.97;;;0.84;87.49
24280;BME280;12395;42.808;23.408;2023-01-25T03:19:41;95979.09;;;0.97;86.75
24280;BME280;12395;42.808;23.408;2023-01-25T03:22:07;95968.81;;;0.84;85.95
24280;BME280;12395;42.808;23.408;2023-01-25T03:24:33;95975.69;;;0.85;86.09
24280;BME280;12395;42.808;23.408;2023-01-25T03:26:59;95972.13;;;0.86;86.10
24280;BME280;12395;42.808;23.408;2023-01-25T03:29:38;95989.16;;;1.01;85.57
24280;BME280;12395;42.808;23.408;2023-01-25T03:32:04;95991.53;;;1.04;85.12
24280;BME280;12395;42.808;23.408;2023-01-25T03:34:29;95976.81;;;1.03;85.13
24280;BME280;12395;42.808;23.408;2023-01-25T03:36:54;95980.38;;;1.02;84.09
24280;BME280;12395;42.808;23.408;2023-01-25T03:39:20;95992.47;;;1.03;84.57
24280;BME280;12395;42.808;23.408;2023-01-25T03:41:45;95985.84;;;0.99;84.25
24280;BME280;12395;42.808;23.408;2023-01-25T03:44:11;95995.28;;;1.11;84.42
24280;BME280;12395;42.808;23.408;2023-01-25T03:46:37;95981.31;;;1.01;84.16
24280;BME280;12395;42.808;23.408;2023-01-25T03:49:03;95994.13;;;1.04;84.18
24280;BME280;12395;42.808;23.408;2023-01-25T03:51:29;95983.09;;;1.01;84.52
24280;BME280;12395;42.808;23.408;2023-01-25T03:53:54;95988.22;;;1.02;84.14
24280;BME280;12395;42.808;23.408;2023-01-25T03:56:20;95990.47;;;1.07;84.12
24280;BME280;12395;42.808;23.408;2023-01-25T03:58:45;95988.66;;;1.07;84.12
24280;BME280;12395;42.808;23.408;2023-01-25T04:01:11;95990.56;;;1.05;84.21
24280;BME280;12395;42.808;23.408;2023-01-25T04:03:37;95994.22;;;1.14;84.20
24280;BME280;12395;42.808;23.408;2023-01-25T04:06:03;95990.06;;;1.11;83.63
24280;BME280;12395;42.808;23.408;2023-01-25T04:08:29;95983.19;;;1.10;83.75
24280;BME280;12395;42.808;23.408;2023-01-25T04:11:06;95984.59;;;1.14;83.68
24280;BME280;12395;42.808;23.408;2023-01-25T04:13:32;95963.97;;;1.11;83.46
24280;BME280;12395;42.808;23.408;2023-01-25T04:16:05;95979.03;;;1.19;83.22
24280;BME280;12395;42.808;23.408;2023-01-25T04:18:31;95963.72;;;1.14;83.01
24280;BME280;12395;42.808;23.408;2023-01-25T04:20:57;95982.88;;;1.35;83.01
24280;BME280;12395;42.808;23.408;2023-01-25T04:23:24;95962.72;;;1.26;82.42
24280;BME280;12395;42.808;23.408;2023-01-25T04:26:01;95955.13;;;1.34;82.73
24280;BME280;12395;42.808;23.408;2023-01-25T04:28:27;95975.81;;;1.47;81.58
24280;BME280;12395;42.808;23.408;2023-01-25T04:30:55;95966.13;;;1.38;81.56
24280;BME280;12395;42.808;23.408;2023-01-25T04:33:22;95963.16;;;1.42;82.11
24280;BME280;12395;42.808;23.408;2023-01-25T04:35:48;95978.75;;;1.53;81.59
24280;BME280;12395;42.808;23.408;2023-01-25T04:38:13;95981.63;;;1.50;81.55
24280;BME280;12395;42.808;23.408;2023-01-25T04:40:39;95966.44;;;1.44;81.28
24280;BME280;12395;42.808;23.408;2023-01-25T04:43:06;95973.03;;;1.39;81.90
24280;BME280;12395;42.808;23.408;2023-01-25T04:45:32;95973.63;;;1.31;81.93
24280;BME280;12395;42.808;23.408;2023-01-25T04:48:02;95972.41;;;1.35;81.94
24280;BME280;12395;42.808;23.408;2023-01-25T04:50:28;95964.25;;;1.29;82.42
24280;BME280;12395;42.808;23.408;2023-01-25T04:52:53;95958.59;;;1.24;81.96
24280;BME280;12395;42.808;23.408;2023-01-25T04:55:19;95977.06;;;1.32;82.35
24280;BME280;12395;42.808;23.408;2023-01-25T04:57:48;95970.56;;;1.26;82.63
24280;BME280;12395;42.808;23.408;2023-01-25T05:00:13;95971.03;;;1.31;82.00
24280;BME280;12395;42.808;23.408;2023-01-25T05:02:39;95986.91;;;1.28;82.11
24280;BME280;12395;42.808;23.408;2023-01-25T05:05:04;95972.59;;;1.23;82.13
24280;BME280;12395;42.808;23.408;2023-01-25T05:07:39;95973.44;;;1.23;82.51
24280;BME280;12395;42.808;23.408;2023-01-25T05:10:06;95985.97;;;1.29;82.16
24280;BME280;12395;42.808;23.408;2023-01-25T05:12:31;95967.00;;;1.27;82.98
24280;BME280;12395;42.808;23.408;2023-01-25T05:14:56;95975.31;;;1.32;82.54
24280;BME280;12395;42.808;23.408;2023-01-25T05:17:22;95960.50;;;1.22;82.41
24280;BME280;12395;42.808;23.408;2023-01-25T05:19:47;95972.94;;;1.29;82.50
24280;BME280;12395;42.808;23.408;2023-01-25T05:22:14;95977.31;;;1.29;82.69
24280;BME280;12395;42.808;23.408;2023-01-25T05:24:40;95971.84;;;1.32;83.17
24280;BME280;12395;42.808;23.408;2023-01-25T05:27:07;95988.50;;;1.51;85.69
24280;BME280;12395;42.808;23.408;2023-01-25T05:29:35;95993.53;;;1.64;84.41
24280;BME280;12395;42.808;23.408;2023-01-25T05:32:02;95985.13;;;1.61;83.14
24280;BME280;12395;42.808;23.408;2023-01-25T05:34:28;95986.41;;;1.66;82.83
24280;BME280;12395;42.808;23.408;2023-01-25T05:36:54;95987.56;;;1.73;82.65
24280;BME280;12395;42.808;23.408;2023-01-25T05:39:20;95993.69;;;1.83;83.67
24280;BME280;12395;42.808;23.408;2023-01-25T05:41:45;95984.16;;;1.82;82.39
24280;BME280;12395;42.808;23.408;2023-01-25T05:44:10;95973.72;;;1.82;82.05
24280;BME280;12395;42.808;23.408;2023-01-25T05:46:36;95983.84;;;1.76;81.29
24280;BME280;12395;42.808;23.408;2023-01-25T05:49:01;95987.81;;;1.70;80.63
24280;BME280;12395;42.808;23.408;2023-01-25T05:51:27;95981.69;;;1.60;81.14
24280;BME280;12395;42.808;23.408;2023-01-25T05:53:56;95980.16;;;1.58;81.04
24280;BME280;12395;42.808;23.408;2023-01-25T05:56:22;95994.13;;;1.68;81.34
24280;BME280;12395;42.808;23.408;2023-01-25T05:58:52;95998.06;;;1.62;81.24
24280;BME280;12395;42.808;23.408;2023-01-25T06:01:18;95995.13;;;1.55;80.96
24280;BME280;12395;42.808;23.408;2023-01-25T06:03:44;95984.69;;;1.55;80.77
24280;BME280;12395;42.808;23.408;2023-01-25T06:06:10;95986.09;;;1.60;80.92
24280;BME280;12395;42.808;23.408;2023-01-25T06:08:35;95988.00;;;1.58;79.96
24280;BME280;12395;42.808;23.408;2023-01-25T06:11:08;95978.06;;;1.51;80.07
24280;BME280;12395;42.808;23.408;2023-01-25T06:13:34;95993.41;;;1.66;80.16
24280;BME280;12395;42.808;23.408;2023-01-25T06:15:59;95979.84;;;1.51;79.53
24280;BME280;12395;42.808;23.408;2023-01-25T06:18:25;95959.69;;;1.42;79.41
24280;BME280;12395;42.808;23.408;2023-01-25T06:20:50;95985.91;;;1.51;79.15
24280;BME280;12395;42.808;23.408;2023-01-25T06:23:16;95987.91;;;1.48;79.37
24280;BME280;12395;42.808;23.408;2023-01-25T06:25:42;95993.72;;;1.51;79.51
24280;BME280;12395;42.808;23.408;2023-01-25T06:28:07;95982.31;;;1.52;79.48
24280;BME280;12395;42.808;23.408;2023-01-25T06:30:33;95984.09;;;1.52;78.94
24280;BME280;12395;42.808;23.408;2023-01-25T06:32:59;95992.16;;;1.60;78.99
24280;BME280;12395;42.808;23.408;2023-01-25T06:35:24;95993.66;;;1.63;78.77
24280;BME280;12395;42.808;23.408;2023-01-25T06:37:50;95970.41;;;1.60;79.26
24280;BME280;12395;42.808;23.408;2023-01-25T06:40:16;95984.22;;;1.71;78.35
24280;BME280;12395;42.808;23.408;2023-01-25T06:42:41;95989.44;;;1.71;77.76
24280;BME280;12395;42.808;23.408;2023-01-25T06:45:07;95982.72;;;1.69;78.44
24280;BME280;12395;42.808;23.408;2023-01-25T06:47:33;95986.47;;;1.76;78.71
24280;BME280;12395;42.808;23.408;2023-01-25T06:49:59;95985.13;;;1.81;77.95
24280;BME280;12395;42.808;23.408;2023-01-25T06:52:24;95974.78;;;1.80;78.25
24280;BME280;12395;42.808;23.408;2023-01-25T06:54:50;95985.63;;;1.96;77.85
24280;BME280;12395;42.808;23.408;2023-01-25T06:57:18;95988.25;;;1.96;77.67
24280;BME280;12395;42.808;23.408;2023-01-25T06:59:44;95974.63;;;1.72;78.32
24280;BME280;12395;42.808;23.408;2023-01-25T07:02:18;95985.00;;;1.83;78.35
24280;BME280;12395;42.808;23.408;2023-01-25T07:04:44;95988.38;;;1.94;78.54
24280;BME280;12395;42.808;23.408;2023-01-25T07:07:09;95979.19;;;2.00;77.92
24280;BME280;12395;42.808;23.408;2023-01-25T07:09:35;95980.78;;;1.91;77.05
24280;BME280;12395;42.808;23.408;2023-01-25T07:12:01;95988.69;;;2.01;77.95
24280;BME280;12395;42.808;23.408;2023-01-25T07:14:28;96001.81;;;2.10;77.72
24280;BME280;12395;42.808;23.408;2023-01-25T07:16:54;95995.88;;;2.08;77.52
24280;BME280;12395;42.808;23.408;2023-01-25T07:19:19;95994.94;;;2.09;77.41
24280;BME280;12395;42.808;23.408;2023-01-25T07:21:44;96006.41;;;2.18;77.10
24280;BME280;12395;42.808;23.408;2023-01-25T07:24:13;95979.50;;;2.06;77.00
24280;BME280;12395;42.808;23.408;2023-01-25T07:26:39;95996.34;;;2.13;76.28
24280;BME280;12395;42.808;23.408;2023-01-25T07:29:04;95999.44;;;2.28;76.87
24280;BME280;12395;42.808;23.408;2023-01-25T07:31:30;95992.03;;;2.33;76.68
24280;BME280;12395;42.808;23.408;2023-01-25T07:33:56;96006.53;;;2.47;75.59
24280;BME280;12395;42.808;23.408;2023-01-25T07:36:23;96005.50;;;2.59;76.77
24280;BME280;12395;42.808;23.408;2023-01-25T07:38:56;95989.69;;;2.70;76.62
24280;BME280;12395;42.808;23.408;2023-01-25T07:41:25;96004.56;;;2.69;74.06
24280;BME280;12395;42.808;23.408;2023-01-25T07:43:51;96003.16;;;2.65;73.85
24280;BME280;12395;42.808;23.408;2023-01-25T07:46:17;96016.16;;;2.76;74.15
24280;BME280;12395;42.808;23.408;2023-01-25T07:48:50;96010.22;;;2.74;74.24
24280;BME280;12395;42.808;23.408;2023-01-25T07:51:18;96017.13;;;2.75;73.52
24280;BME280;12395;42.808;23.408;2023-01-25T07:54:00;96011.19;;;2.73;73.57
24280;BME280;12395;42.808;23.408;2023-01-25T07:56:29;96024.69;;;2.69;72.69
24280;BME280;12395;42.808;23.408;2023-01-25T07:58:56;96022.97;;;2.58;73.60
24280;BME280;12395;42.808;23.408;2023-01-25T08:01:24;96036.97;;;2.48;74.26
24280;BME280;12395;42.808;23.408;2023-01-25T08:03:50;96025.94;;;2.44;74.34
24280;BME280;12395;42.808;23.408;2023-01-25T08:06:21;96027.38;;;2.58;74.18
24280;BME280;12395;42.808;23.408;2023-01-25T08:08:48;96013.59;;;2.56;74.40
24280;BME280;12395;42.808;23.408;2023-01-25T08:11:15;96022.78;;;2.80;74.94
24280;BME280;12395;42.808;23.408;2023-01-25T08:13:42;96015.41;;;2.95;75.81
24280;BME280;12395;42.808;23.408;2023-01-25T08:16:13;96003.81;;;2.97;72.84
24280;BME280;12395;42.808;23.408;2023-01-25T08:18:38;96016.34;;;2.94;72.57
24280;BME280;12395;42.808;23.408;2023-01-25T08:21:04;96018.03;;;3.04;73.03
24280;BME280;12395;42.808;23.408;2023-01-25T08:23:30;96009.09;;;3.17;73.00
24280;BME280;12395;42.808;23.408;2023-01-25T08:26:01;96008.97;;;3.28;72.47
24280;BME280;12395;42.808;23.408;2023-01-25T08:28:26;96007.75;;;3.41;71.44
24280;BME280;12395;42.808;23.408;2023-01-25T08:30:51;95996.84;;;3.36;71.37
24280;BME280;12395;42.808;23.408;2023-01-25T08:33:17;96012.47;;;3.57;71.27
24280;BME280;12395;42.808;23.408;2023-01-25T08:35:53;96009.66;;;3.49;71.37
24280;BME280;12395;42.808;23.408;2023-01-25T08:38:18;96000.84;;;3.40;72.11
24280;BME280;12395;42.808;23.408;2023-01-25T08:40:44;96012.44;;;3.47;70.93
24280;BME280;12395;42.808;23.408;2023-01-25T08:43:09;96016.56;;;3.40;70.42
24280;BME280;12395;42.808;23.408;2023-01-25T08:45:34;96001.00;;;3.39;71.24
24280;BME280;12395;42.808;23.408;2023-01-25T08:48:01;96024.59;;;3.48;70.64
24280;BME280;12395;42.808;23.408;2023-01-25T08:50:26;96028.28;;;3.36;71.25
24280;BME280;12395;42.808;23.408;2023-01-25T08:52:52;96010.78;;;3.37;71.54
24280;BME280;12395;42.808;23.408;2023-01-25T08:55:17;96003.31;;;3.32;71.82
24280;BME280;12395;42.808;23.408;2023-01-25T08:57:42;95992.19;;;3.40;71.21
24280;BME280;12395;42.808;23.408;2023-01-25T09:00:10;95989.81;;;3.37;70.15
24280;BME280;12395;42.808;23.408;2023-01-25T09:02:36;96012.97;;;3.32;70.16
24280;BME280;12395;42.808;23.408;2023-01-25T09:05:01;96013.81;;;3.23;70.73
24280;BME280;12395;42.808;23.408;2023-01-25T09:07:27;96006.34;;;3.28;70.02
24280;BME280;12395;42.808;23.408;2023-01-25T09:09:52;95986.50;;;3.35;70.75
24280;BME280;12395;42.808;23.408;2023-01-25T09:12:18;95993.28;;;3.56;69.91
24280;BME280;12395;42.808;23.408;2023-01-25T09:14:43;95990.66;;;3.37;68.98
24280;BME280;12395;42.808;23.408;2023-01-25T09:17:08;96007.34;;;3.27;68.97
24280;BME280;12395;42.808;23.408;2023-01-25T09:19:34;95990.06;;;3.05;69.45
24280;BME280;12395;42.808;23.408;2023-01-25T09:21:59;96011.84;;;3.05;70.06
24280;BME280;12395;42.808;23.408;2023-01-25T09:24:25;95986.91;;;3.01;70.52
24280;BME280;12395;42.808;23.408;2023-01-25T09:26:50;95992.00;;;3.03;70.31
24280;BME280;12395;42.808;23.408;2023-01-25T09:29:15;95986.22;;;3.09;71.19
24280;BME280;12395;42.808;23.408;2023-01-25T09:31:41;95976.00;;;3.25;70.97
24280;BME280;12395;42.808;23.408;2023-01-25T09:34:09;95973.56;;;3.33;70.65
24280;BME280;12395;42.808;23.408;2023-01-25T09:36:35;95966.66;;;3.23;70.23
24280;BME280;12395;42.808;23.408;2023-01-25T09:39:01;95970.81;;;3.35;70.81
24280;BME280;12395;42.808;23.408;2023-01-25T09:42:01;95969.28;;;3.51;70.92
24280;BME280;12395;42.808;23.408;2023-01-25T09:45:11;95971.06;;;3.60;70.45
24280;BME280;12395;42.808;23.408;2023-01-25T09:53:13;95960.84;;;3.57;70.02
24280;BME280;12395;42.808;23.408;2023-01-25T09:55:41;95950.00;;;3.52;70.98
24280;BME280;12395;42.808;23.408;2023-01-25T09:58:13;95949.56;;;3.47;70.81
24280;BME280;12395;42.808;23.408;2023-01-25T10:00:45;95930.94;;;3.60;70.21
24280;BME280;12395;42.808;23.408;2023-01-25T10:03:26;95940.59;;;3.69;70.58
24280;BME280;12395;42.808;23.408;2023-01-25T10:05:57;95949.28;;;3.60;70.10
24280;BME280;12395;42.808;23.408;2023-01-25T10:08:31;95940.75;;;3.39;70.55
24280;BME280;12395;42.808;23.408;2023-01-25T10:11:35;95934.41;;;3.41;71.43
24280;BME280;12395;42.808;23.408;2023-01-25T10:14:10;95921.97;;;3.62;71.30
24280;BME280;12395;42.808;23.408;2023-01-25T10:22:16;95910.50;;;3.82;72.21
24280;BME280;12395;42.808;23.408;2023-01-25T10:27:44;95898.66;;;4.15;69.37
24280;BME280;12395;42.808;23.408;2023-01-25T10:30:29;95899.72;;;4.32;69.01
24280;BME280;12395;42.808;23.408;2023-01-25T10:33:01;95891.38;;;4.36;68.84
24280;BME280;12395;42.808;23.408;2023-01-25T10:35:33;95888.88;;;4.44;67.63
24280;BME280;12395;42.808;23.408;2023-01-25T10:38:20;95884.22;;;4.38;67.86
24280;BME280;12395;42.808;23.408;2023-01-25T10:43:41;95869.63;;;4.26;68.02
24280;BME280;12395;42.808;23.408;2023-01-25T10:46:19;95876.53;;;4.27;67.88
24280;BME280;12395;42.808;23.408;2023-01-25T10:48:46;95868.75;;;4.35;67.94
24280;BME280;12395;42.808;23.408;2023-01-25T10:51:28;95859.81;;;4.28;67.54
24280;BME280;12395;42.808;23.408;2023-01-25T10:54:02;95834.75;;;4.16;67.74
24280;BME280;12395;42.808;23.408;2023-01-25T10:56:29;95867.69;;;4.28;67.28
24280;BME280;12395;42.808;23.408;2023-01-25T10:59:19;95872.56;;;4.23;67.09
24280;BME280;12395;42.808;23.408;2023-01-25T11:01:45;95873.13;;;3.80;68.30
24280;BME280;12395;42.808;23.408;2023-01-25T11:04:33;95862.13;;;3.58;69.42
24280;BME280;12395;42.808;23.408;2023-01-25T11:07:01;95859.25;;;3.51;70.17
24280;BME280;12395;42.808;23.408;2023-01-25T11:09:35;95852.38;;;3.50;70.53
24280;BME280;12395;42.808;23.408;2023-01-25T11:14:35;95848.66;;;3.53;71.23
24280;BME280;12395;42.808;23.408;2023-01-25T11:17:02;95845.47;;;3.59;71.23
24280;BME280;12395;42.808;23.408;2023-01-25T11:19:37;95842.94;;;3.67;70.67
24280;BME280;12395;42.808;23.408;2023-01-25T11:22:23;95826.75;;;3.81;71.00
24280;BME280;12395;42.808;23.408;2023-01-25T11:24:49;95831.06;;;3.72;69.69
24280;BME280;12395;42.808;23.408;2023-01-25T11:27:22;95844.63;;;3.58;71.43
24280;BME280;12395;42.808;23.408;2023-01-25T11:32:30;95834.56;;;3.54;72.18
24280;BME280;12395;42.808;23.408;2023-01-25T11:34:55;95824.34;;;3.60;71.71
24280;BME280;12395;42.808;23.408;2023-01-25T11:40:22;95834.56;;;3.54;71.16
24280;BME280;12395;42.808;23.408;2023-01-25T11:43:13;95834.31;;;3.47;72.11
24280;BME280;12395;42.808;23.408;2023-01-25T11:51:39;95809.72;;;3.58;73.25
24280;BME280;12395;42.808;23.408;2023-01-25T12:00:31;95798.47;;;3.48;73.58
24280;BME280;12395;42.808;23.408;2023-01-25T12:05:59;95782.69;;;3.57;73.36
24280;BME280;12395;42.808;23.408;2023-01-25T12:08:37;95775.31;;;3.53;73.75
24280;BME280;12395;42.808;23.408;2023-01-25T12:11:27;95784.63;;;3.65;73.79
24280;BME280;12395;42.808;23.408;2023-01-25T12:30:53;95763.72;;;3.46;75.52
24280;BME280;12395;42.808;23.408;2023-01-25T12:33:27;95754.94;;;3.28;75.73
24280;BME280;12395;42.808;23.408;2023-01-25T12:36:00;95748.69;;;3.01;76.31
24280;BME280;12395;42.808;23.408;2023-01-25T12:38:38;95768.25;;;3.07;76.29
24280;BME280;12395;42.808;23.408;2023-01-25T12:46:28;95738.13;;;2.65;78.65
24280;BME280;12395;42.808;23.408;2023-01-25T12:48:58;95739.38;;;2.51;78.91
24280;BME280;12395;42.808;23.408;2023-01-25T12:51:34;95733.44;;;2.49;79.49
24280;BME280;12395;42.808;23.408;2023-01-25T12:54:05;95723.81;;;2.40;80.12
24280;BME280;12395;42.808;23.408;2023-01-25T12:57:00;95749.41;;;2.65;79.90
24280;BME280;12395;42.808;23.408;2023-01-25T13:05:26;95740.31;;;3.35;77.07
24280;BME280;12395;42.808;23.408;2023-01-25T13:10:49;95724.16;;;3.12;75.84
24280;BME280;12395;42.808;23.408;2023-01-25T13:13:27;95722.22;;;3.04;77.23
24280;BME280;12395;42.808;23.408;2023-01-25T13:15:53;95726.63;;;3.04;76.89
24280;BME280;12395;42.808;23.408;2023-01-25T13:21:41;95727.22;;;2.79;77.45
24280;BME280;12395;42.808;23.408;2023-01-25T13:24:17;95723.50;;;2.72;78.39
24280;BME280;12395;42.808;23.408;2023-01-25T13:32:03;95737.47;;;2.44;79.48
24280;BME280;12395;42.808;23.408;2023-01-25T13:44:44;95713.75;;;2.07;81.67
24280;BME280;12395;42.808;23.408;2023-01-25T13:47:15;95729.88;;;2.21;81.16
24280;BME280;12395;42.808;23.408;2023-01-25T13:49:47;95721.72;;;2.05;81.83
24280;BME280;12395;42.808;23.408;2023-01-25T13:52:16;95728.31;;;2.00;81.46
24280;BME280;12395;42.808;23.408;2023-01-25T13:54:44;95732.16;;;1.96;82.46
24280;BME280;12395;42.808;23.408;2023-01-25T13:57:18;95731.03;;;1.79;82.57
24280;BME280;12395;42.808;23.408;2023-01-25T13:59:44;95740.75;;;1.68;82.93
24280;BME280;12395;42.808;23.408;2023-01-25T14:02:15;95734.00;;;1.65;83.25
24280;BME280;12395;42.808;23.408;2023-01-25T14:04:45;95722.84;;;1.53;83.08
24280;BME280;12395;42.808;23.408;2023-01-25T14:07:16;95728.88;;;1.54;83.93
24280;BME280;12395;42.808;23.408;2023-01-25T14:09:43;95747.03;;;1.55;83.90
24280;BME280;12395;42.808;23.408;2023-01-25T14:12:09;95734.91;;;1.45;83.98
24280;BME280;12395;42.808;23.408;2023-01-25T14:14:36;95738.09;;;1.48;83.48
24280;BME280;12395;42.808;23.408;2023-01-25T14:19:41;95726.50;;;1.41;84.13
24280;BME280;12395;42.808;23.408;2023-01-25T14:22:27;95739.06;;;1.47;84.11
24280;BME280;12395;42.808;23.408;2023-01-25T14:25:08;95743.44;;;1.47;84.28
24280;BME280;12395;42.808;23.408;2023-01-25T14:27:39;95744.13;;;1.49;83.77
24280;BME280;12395;42.808;23.408;2023-01-25T14:30:06;95732.00;;;1.38;83.51
24280;BME280;12395;42.808;23.408;2023-01-25T14:32:40;95739.13;;;1.36;83.88
24280;BME280;12395;42.808;23.408;2023-01-25T14:35:31;95724.00;;;1.30;84.32
24280;BME280;12395;42.808;23.408;2023-01-25T14:37:57;95733.31;;;1.23;84.71
24280;BME280;12395;42.808;23.408;2023-01-25T14:40:25;95733.31;;;1.23;84.13
24280;BME280;12395;42.808;23.408;2023-01-25T14:42:52;95727.50;;;1.20;84.54
24280;BME280;12395;42.808;23.408;2023-01-25T14:45:19;95729.72;;;1.24;84.36
24280;BME280;12395;42.808;23.408;2023-01-25T14:47:48;95720.09;;;1.15;84.38
24280;BME280;12395;42.808;23.408;2023-01-25T14:50:35;95725.88;;;1.19;84.76
24280;BME280;12395;42.808;23.408;2023-01-25T14:53:22;95719.81;;;1.18;84.78
24280;BME280;12395;42.808;23.408;2023-01-25T14:55:49;95711.16;;;1.18;84.17